Blairsden, California
Current Conditions -  °F | °C
As of 2:52 PM on Thursday 27 Nov 2014 (Local Time) from KBLU Reporting Station
Clear Clear  
Wind Chill: 59°   Ceiling: Unl
Heat Index: 59°   Visibility: 10mi
Dew Point: 27°   Wind: 7mph
Humidity: 29%   Direction: 180°S
Pressure: 30.24"   Gusts: NA
Location:  39.7722°N, 120.711°W
Report Text: KBLU 272252Z AUTO 18006KT 10SM CLR 15/M03 A3024 RMK AO2 SLP182 T01501028
Loading
Personal Weather Stations






























Interactive Weather Map New forecast layout! Learn more

10-Day Weather Forecast

Advertisements
Track Severe Weather on mobile